createdAt,value
2022-10-25T00:03:20.562Z,78.57
2022-10-25T00:08:26.148Z,78.74
2022-10-25T00:13:32.069Z,78.86
2022-10-25T00:18:37.581Z,79.01
2022-10-25T00:23:43.111Z,78.81
2022-10-25T00:28:48.634Z,79.20
2022-10-25T00:33:54.661Z,79.01
2022-10-25T00:39:00.272Z,79.09
2022-10-25T00:44:43.954Z,79.28
2022-10-25T00:50:01.406Z,79.22
2022-10-25T00:55:08.862Z,79.40
2022-10-25T01:00:14.967Z,79.67
2022-10-25T01:05:20.990Z,79.67
2022-10-25T01:10:27.383Z,79.91
2022-10-25T01:15:38.479Z,79.81
2022-10-25T01:21:02.038Z,79.86
2022-10-25T01:26:22.170Z,80.00
2022-10-25T01:31:42.656Z,79.99
2022-10-25T01:37:06.283Z,80.14
2022-10-25T01:42:20.159Z,80.26
2022-10-25T01:47:28.613Z,80.27
2022-10-25T01:52:34.390Z,80.33
2022-10-25T01:57:46.038Z,80.43
2022-10-25T02:03:00.446Z,80.47
2022-10-25T02:08:21.042Z,80.44
2022-10-25T02:13:35.300Z,80.42
2022-10-25T02:18:44.478Z,80.48
2022-10-25T02:23:51.505Z,80.64
2022-10-25T02:28:58.176Z,80.38
2022-10-25T02:34:04.560Z,80.72
2022-10-25T02:39:10.462Z,80.78
2022-10-25T02:44:16.007Z,80.54
2022-10-25T02:49:21.528Z,80.53
2022-10-25T02:54:27.377Z,80.65
2022-10-25T02:59:33.183Z,80.87
2022-10-25T03:04:38.629Z,80.72
2022-10-25T03:09:44.038Z,80.92
2022-10-25T03:14:49.539Z,80.84
2022-10-25T03:19:54.981Z,80.65
2022-10-25T03:25:00.494Z,80.80
2022-10-25T03:30:08.238Z,80.64
2022-10-25T03:35:13.697Z,80.74
2022-10-25T03:40:20.420Z,80.80
2022-10-25T03:45:25.878Z,81.05
2022-10-25T03:50:31.413Z,80.95
2022-10-25T03:55:37.002Z,80.71
2022-10-25T04:00:42.544Z,80.67
2022-10-25T04:05:48.555Z,80.90
2022-10-25T04:10:53.938Z,81.36
2022-10-25T04:15:59.407Z,81.28
2022-10-25T04:21:05.016Z,81.30
2022-10-25T04:26:10.539Z,81.28
2022-10-25T04:31:16.060Z,80.99
2022-10-25T04:36:23.175Z,81.13
2022-10-25T04:41:28.700Z,81.03
2022-10-25T04:46:34.221Z,81.13
2022-10-25T04:51:40.019Z,81.15
2022-10-25T04:56:45.417Z,81.05
2022-10-25T05:06:57.502Z,81.27
2022-10-25T05:12:03.043Z,81.13
2022-10-25T05:17:08.651Z,81.05
2022-10-25T05:22:14.110Z,80.91
2022-10-25T05:27:19.804Z,80.98
2022-10-25T05:32:25.213Z,80.87
2022-10-25T05:37:30.592Z,81.10
2022-10-25T05:42:36.067Z,81.25
2022-10-25T05:47:41.699Z,81.19
2022-10-25T05:52:47.381Z,81.51
2022-10-25T05:57:53.729Z,81.53
2022-10-25T06:03:02.249Z,81.61
2022-10-25T06:08:07.761Z,81.75
2022-10-25T06:13:13.138Z,82.28
2022-10-25T06:18:18.601Z,81.86
2022-10-25T06:23:24.049Z,82.13
2022-10-25T06:28:33.066Z,81.89
2022-10-25T06:33:39.009Z,82.23
2022-10-25T06:38:45.789Z,82.30
2022-10-25T06:43:51.311Z,82.10
2022-10-25T06:48:58.432Z,82.30
2022-10-25T06:54:08.137Z,82.22
2022-10-25T06:59:13.712Z,82.09
2022-10-25T07:04:19.188Z,82.05
2022-10-25T07:09:26.283Z,82.00
2022-10-25T07:14:31.736Z,81.92
2022-10-25T07:19:37.313Z,81.76
2022-10-25T07:24:42.770Z,82.26
2022-10-25T07:29:48.947Z,82.04
2022-10-25T07:34:54.527Z,82.21
2022-10-25T07:40:00.091Z,82.61
2022-10-25T07:45:06.528Z,82.79
2022-10-25T07:50:12.155Z,82.70
2022-10-25T07:55:17.679Z,82.69
2022-10-25T08:00:23.567Z,82.51
2022-10-25T08:05:29.399Z,82.65
2022-10-25T08:10:35.193Z,82.45
2022-10-25T08:15:42.284Z,82.52
2022-10-25T08:21:04.168Z,82.20
2022-10-25T08:25:55.581Z,82.47
2022-10-25T08:31:01.953Z,81.81
2022-10-25T08:36:08.588Z,82.67
2022-10-25T08:41:35.318Z,82.44
2022-10-25T08:47:03.412Z,82.89
2022-10-25T08:52:15.262Z,82.61
2022-10-25T08:57:37.144Z,83.43
2022-10-25T09:02:54.411Z,82.04
2022-10-25T09:08:17.931Z,82.36
2022-10-25T09:13:53.819Z,82.13
2022-10-25T09:18:59.275Z,82.46
2022-10-25T09:24:07.772Z,81.58
2022-10-25T09:29:23.915Z,81.36
2022-10-25T09:34:33.164Z,82.00
2022-10-25T09:39:44.385Z,81.29
2022-10-25T09:44:52.821Z,81.23
2022-10-25T09:50:07.727Z,81.11
2022-10-25T09:55:40.726Z,80.31
2022-10-25T10:00:46.719Z,80.81
2022-10-25T10:05:56.833Z,79.61
2022-10-25T10:11:04.453Z,79.96
2022-10-25T10:16:35.325Z,79.45
2022-10-25T10:21:46.383Z,79.40
2022-10-25T10:26:55.772Z,79.04
2022-10-25T10:32:05.281Z,78.93
2022-10-25T10:37:26.260Z,78.52
2022-10-25T10:42:35.173Z,78.27
2022-10-25T10:47:56.268Z,77.62
2022-10-25T10:53:07.702Z,77.60
2022-10-25T10:58:35.798Z,76.76
2022-10-25T11:03:58.891Z,76.98
2022-10-25T11:08:54.446Z,76.35
2022-10-25T11:14:02.170Z,75.75
2022-10-25T11:19:13.502Z,75.61
2022-10-25T11:24:33.716Z,75.24
2022-10-25T11:29:47.711Z,76.29
2022-10-25T11:35:05.272Z,74.67
2022-10-25T11:40:22.521Z,74.14
2022-10-25T11:45:43.268Z,72.83
2022-10-25T11:51:03.826Z,73.08
2022-10-25T11:56:12.328Z,73.01
2022-10-25T12:01:52.733Z,72.82
2022-10-25T12:07:16.473Z,72.40
2022-10-25T12:12:24.961Z,72.93
2022-10-25T12:17:32.963Z,72.78
2022-10-25T12:22:44.527Z,73.18
2022-10-25T12:27:56.592Z,72.70
2022-10-25T12:33:09.088Z,72.80
2022-10-25T12:38:22.077Z,72.65
2022-10-25T12:43:36.291Z,72.23
2022-10-25T12:48:50.383Z,71.73
2022-10-25T12:54:29.022Z,72.31
2022-10-25T13:00:05.187Z,72.54
2022-10-25T13:05:22.803Z,71.06
2022-10-25T13:10:29.910Z,71.02
2022-10-25T13:15:59.397Z,70.79
2022-10-25T13:21:08.103Z,70.33
2022-10-25T13:26:16.227Z,69.80
2022-10-25T13:31:39.922Z,69.83
2022-10-25T13:36:54.344Z,66.24
2022-10-25T13:42:18.131Z,68.21
2022-10-25T13:47:35.952Z,68.28
2022-10-25T13:52:47.422Z,67.95
2022-10-25T13:57:55.892Z,68.64
2022-10-25T14:03:13.923Z,68.47
2022-10-25T14:08:31.229Z,68.84
2022-10-25T14:13:55.560Z,69.13
2022-10-25T14:19:09.606Z,69.62
2022-10-25T14:24:17.710Z,70.22
2022-10-25T14:29:26.115Z,70.50
2022-10-25T14:34:31.950Z,70.58
2022-10-25T14:39:38.941Z,68.89
2022-10-25T14:44:50.195Z,70.79
2022-10-25T14:49:56.037Z,71.38
2022-10-25T14:55:04.779Z,71.23
2022-10-25T15:00:19.140Z,71.52
2022-10-25T15:05:26.421Z,72.22
2022-10-25T15:10:43.782Z,72.39
2022-10-25T15:15:51.694Z,72.48
2022-10-25T15:21:12.666Z,72.59
2022-10-25T15:26:23.004Z,72.96
2022-10-25T15:31:31.593Z,73.51
2022-10-25T15:36:37.124Z,73.95
2022-10-25T15:41:42.645Z,74.26
2022-10-25T15:46:49.148Z,74.54
2022-10-25T15:51:55.502Z,74.70
2022-10-25T15:57:00.945Z,74.80
2022-10-25T16:02:09.597Z,75.36
2022-10-25T16:07:16.399Z,75.61
2022-10-25T16:12:24.530Z,75.68
2022-10-25T16:17:30.052Z,76.22
2022-10-25T16:22:35.436Z,76.68
2022-10-25T16:27:42.993Z,77.11
2022-10-25T16:32:49.266Z,77.44
2022-10-25T16:37:55.211Z,77.91
2022-10-25T16:43:00.965Z,78.23
2022-10-25T16:48:07.497Z,78.53
2022-10-25T16:53:14.989Z,78.91
2022-10-25T16:58:20.604Z,79.02
2022-10-25T17:03:26.207Z,79.28
2022-10-25T17:08:31.749Z,79.54
2022-10-25T17:13:38.385Z,79.80
2022-10-25T17:18:44.232Z,80.09
2022-10-25T17:23:49.734Z,80.84
2022-10-25T17:28:55.265Z,80.75
2022-10-25T17:34:01.951Z,80.92
2022-10-25T17:39:12.734Z,81.17
2022-10-25T17:44:18.153Z,81.47
2022-10-25T17:49:23.718Z,81.57
2022-10-25T17:54:29.205Z,81.60
2022-10-25T17:59:35.978Z,81.97
2022-10-25T18:05:01.253Z,82.17
2022-10-25T18:09:50.268Z,82.47
2022-10-25T18:14:55.897Z,82.54
2022-10-25T18:20:01.288Z,82.91
2022-10-25T18:25:07.900Z,83.04
2022-10-25T18:30:14.846Z,83.05
2022-10-25T18:35:21.426Z,83.19
2022-10-25T18:40:26.891Z,83.20
2022-10-25T18:45:33.814Z,83.26
2022-10-25T18:50:42.469Z,83.32
2022-10-25T18:55:51.628Z,83.39
2022-10-25T19:00:57.196Z,83.46
2022-10-25T19:06:03.062Z,83.54
2022-10-25T19:11:11.064Z,83.69
2022-10-25T19:16:16.904Z,83.67
2022-10-25T19:21:22.515Z,83.83
2022-10-25T19:26:28.337Z,83.57
2022-10-25T19:31:33.794Z,83.65
2022-10-25T19:36:39.327Z,83.81
2022-10-25T19:41:44.779Z,83.77
2022-10-25T19:46:53.864Z,83.65
2022-10-25T19:51:59.443Z,83.70
2022-10-25T19:57:06.351Z,83.52
2022-10-25T20:02:11.959Z,83.57
2022-10-25T20:07:17.816Z,83.24
2022-10-25T20:12:23.413Z,83.30
2022-10-25T20:17:29.083Z,83.35
2022-10-25T20:22:36.254Z,83.39
2022-10-25T20:27:41.728Z,83.58
2022-10-25T20:32:47.382Z,83.49
2022-10-25T20:37:52.839Z,83.54
2022-10-25T20:42:58.652Z,83.74
2022-10-25T20:48:04.282Z,83.90
2022-10-25T20:53:10.952Z,84.58
2022-10-25T20:58:18.179Z,84.15
2022-10-25T21:03:24.674Z,83.89
2022-10-25T21:08:30.222Z,84.04
2022-10-25T21:13:37.835Z,84.01
2022-10-25T21:18:44.690Z,84.04
2022-10-25T21:23:52.026Z,83.84
2022-10-25T21:28:57.493Z,83.86
2022-10-25T21:34:04.680Z,84.01
2022-10-25T21:39:10.271Z,83.99
2022-10-25T21:44:15.727Z,83.96
2022-10-25T21:49:21.266Z,83.83
2022-10-25T21:54:26.858Z,83.87
2022-10-25T21:59:32.249Z,84.04
2022-10-25T22:04:39.714Z,84.06
2022-10-25T22:09:45.248Z,84.21
2022-10-25T22:14:50.651Z,84.17
2022-10-25T22:19:56.102Z,84.37
2022-10-25T22:25:01.498Z,84.39
2022-10-25T22:30:07.907Z,84.37
2022-10-25T22:35:13.384Z,84.37
2022-10-25T22:40:18.936Z,84.59
2022-10-25T22:45:24.399Z,84.56
2022-10-25T22:50:29.791Z,84.50
2022-10-25T22:55:35.176Z,84.20
2022-10-25T23:00:40.549Z,84.42
2022-10-25T23:05:46.153Z,84.28
2022-10-25T23:10:53.967Z,84.32
2022-10-25T23:15:59.690Z,84.21
2022-10-25T23:21:07.633Z,84.25
2022-10-25T23:26:18.791Z,84.49
2022-10-25T23:31:25.498Z,84.57
2022-10-25T23:36:34.324Z,84.61
2022-10-25T23:41:39.774Z,84.54
2022-10-25T23:46:45.543Z,84.58
2022-10-25T23:51:51.078Z,84.65
2022-10-25T23:56:56.536Z,84.66
